Goodyear, Mississippi
Current Conditions -  °F | °C
As of 8:53 AM on Wednesday 26 Nov 2014 (Local Time) from KASD Reporting Station
Clear Clear  
Wind Chill: 48°   Ceiling: Unl
Heat Index: 48°   Visibility: 10mi
Dew Point: 34°   Wind: 0mph
Humidity: 58%   Direction: NA
Pressure: 30.29"   Gusts: NA
Location:  30.5854°N, 89.6932°W
Report Text: KASD 261453Z AUTO 00000KT 10SM CLR 09/01 A3029 RMK AO2 SLP256 T00890011 53017
Loading
Personal Weather Stations






























Interactive Weather Map New forecast layout! Learn more

10-Day Weather Forecast

Advertisements
Track Severe Weather on mobile